sensor_id;sensor_type;location;lat;lon;timestamp;temperature;humidity
23717;DHT22;22094;52.130;5.598;2023-07-28T00:00:24;18.10;36.40
23717;DHT22;22094;52.130;5.598;2023-07-28T00:02:49;18.20;42.00
23717;DHT22;22094;52.130;5.598;2023-07-28T00:05:15;18.20;44.60
23717;DHT22;22094;52.130;5.598;2023-07-28T00:07:41;18.20;37.60
23717;DHT22;22094;52.130;5.598;2023-07-28T00:10:06;18.20;36.40
23717;DHT22;22094;52.130;5.598;2023-07-28T00:12:32;18.20;40.20
23717;DHT22;22094;52.130;5.598;2023-07-28T00:14:58;18.20;41.90
23717;DHT22;22094;52.130;5.598;2023-07-28T00:17:25;18.10;45.10
23717;DHT22;22094;52.130;5.598;2023-07-28T00:19:51;18.10;50.30
23717;DHT22;22094;52.130;5.598;2023-07-28T00:22:16;18.10;60.40
23717;DHT22;22094;52.130;5.598;2023-07-28T00:24:42;18.10;48.20
23717;DHT22;22094;52.130;5.598;2023-07-28T00:27:07;18.20;49.70
23717;DHT22;22094;52.130;5.598;2023-07-28T00:29:33;18.10;39.30
23717;DHT22;22094;52.130;5.598;2023-07-28T00:31:59;18.10;46.70
23717;DHT22;22094;52.130;5.598;2023-07-28T00:34:24;18.20;40.10
23717;DHT22;22094;52.130;5.598;2023-07-28T00:36:50;18.20;40.90
23717;DHT22;22094;52.130;5.598;2023-07-28T00:39:15;18.10;37.70
23717;DHT22;22094;52.130;5.598;2023-07-28T00:41:41;18.10;34.60
23717;DHT22;22094;52.130;5.598;2023-07-28T00:44:06;18.20;40.50
23717;DHT22;22094;52.130;5.598;2023-07-28T00:46:32;18.20;32.00
23717;DHT22;22094;52.130;5.598;2023-07-28T00:48:58;18.20;25.80
23717;DHT22;22094;52.130;5.598;2023-07-28T00:51:23;18.20;27.50
23717;DHT22;22094;52.130;5.598;2023-07-28T00:53:50;18.20;21.70
23717;DHT22;22094;52.130;5.598;2023-07-28T00:56:18;18.20;25.30
23717;DHT22;22094;52.130;5.598;2023-07-28T00:58:44;18.10;27.40
23717;DHT22;22094;52.130;5.598;2023-07-28T01:01:10;18.10;21.10
23717;DHT22;22094;52.130;5.598;2023-07-28T01:03:35;18.20;25.80
23717;DHT22;22094;52.130;5.598;2023-07-28T01:06:15;18.20;21.70
23717;DHT22;22094;52.130;5.598;2023-07-28T01:09:02;18.20;18.20
23717;DHT22;22094;52.130;5.598;2023-07-28T01:11:31;18.20;13.70
23717;DHT22;22094;52.130;5.598;2023-07-28T01:13:57;18.10;12.90
23717;DHT22;22094;52.130;5.598;2023-07-28T01:16:23;18.20;20.50
23717;DHT22;22094;52.130;5.598;2023-07-28T01:18:49;18.20;18.20
23717;DHT22;22094;52.130;5.598;2023-07-28T01:21:21;18.20;12.50
23717;DHT22;22094;52.130;5.598;2023-07-28T01:26:36;18.20;10.60
23717;DHT22;22094;52.130;5.598;2023-07-28T01:29:03;18.20;4.90
23717;DHT22;22094;52.130;5.598;2023-07-28T01:31:29;18.20;1.00
23717;DHT22;22094;52.130;5.598;2023-07-28T01:33:55;18.20;1.00
23717;DHT22;22094;52.130;5.598;2023-07-28T01:36:20;18.20;1.00
23717;DHT22;22094;52.130;5.598;2023-07-28T01:38:46;18.50;1.00
23717;DHT22;22094;52.130;5.598;2023-07-28T01:41:12;18.10;1.00
23717;DHT22;22094;52.130;5.598;2023-07-28T01:43:37;18.20;2.40
23717;DHT22;22094;52.130;5.598;2023-07-28T01:46:03;18.10;1.00
23717;DHT22;22094;52.130;5.598;2023-07-28T01:48:29;18.20;1.00
23717;DHT22;22094;52.130;5.598;2023-07-28T01:50:54;18.20;1.00
23717;DHT22;22094;52.130;5.598;2023-07-28T01:53:20;18.20;1.00
23717;DHT22;22094;52.130;5.598;2023-07-28T01:55:46;18.20;1.00
23717;DHT22;22094;52.130;5.598;2023-07-28T01:58:11;18.10;1.00
23717;DHT22;22094;52.130;5.598;2023-07-28T02:00:37;18.20;1.00
23717;DHT22;22094;52.130;5.598;2023-07-28T02:03:03;18.20;1.00
23717;DHT22;22094;52.130;5.598;2023-07-28T02:05:29;18.20;1.00
23717;DHT22;22094;52.130;5.598;2023-07-28T02:07:56;18.20;1.00
23717;DHT22;22094;52.130;5.598;2023-07-28T02:10:26;18.20;1.00
23717;DHT22;22094;52.130;5.598;2023-07-28T02:12:52;18.20;1.00
23717;DHT22;22094;52.130;5.598;2023-07-28T02:15:18;18.30;1.00
23717;DHT22;22094;52.130;5.598;2023-07-28T02:17:43;18.20;1.00
23717;DHT22;22094;52.130;5.598;2023-07-28T02:20:09;18.20;1.00
23717;DHT22;22094;52.130;5.598;2023-07-28T02:22:41;18.20;1.00
23717;DHT22;22094;52.130;5.598;2023-07-28T02:25:07;18.20;1.00
23717;DHT22;22094;52.130;5.598;2023-07-28T02:27:33;18.20;4.90
23717;DHT22;22094;52.130;5.598;2023-07-28T02:29:59;18.20;12.10
23717;DHT22;22094;52.130;5.598;2023-07-28T02:32:26;18.10;14.70
23717;DHT22;22094;52.130;5.598;2023-07-28T02:34:51;18.10;19.00
23717;DHT22;22094;52.130;5.598;2023-07-28T02:37:17;18.10;23.90
23717;DHT22;22094;52.130;5.598;2023-07-28T02:39:43;18.20;30.30
23717;DHT22;22094;52.130;5.598;2023-07-28T02:42:09;18.20;21.90
23717;DHT22;22094;52.130;5.598;2023-07-28T02:44:34;18.10;25.50
23717;DHT22;22094;52.130;5.598;2023-07-28T02:47:00;18.20;33.40
23717;DHT22;22094;52.130;5.598;2023-07-28T02:49:25;18.10;27.80
23717;DHT22;22094;52.130;5.598;2023-07-28T02:51:51;18.10;29.50
23717;DHT22;22094;52.130;5.598;2023-07-28T02:54:17;18.10;38.90
23717;DHT22;22094;52.130;5.598;2023-07-28T02:56:42;18.10;51.00
23717;DHT22;22094;52.130;5.598;2023-07-28T02:59:08;18.10;40.80
23717;DHT22;22094;52.130;5.598;2023-07-28T03:01:33;18.10;43.30
23717;DHT22;22094;52.130;5.598;2023-07-28T03:04:01;18.10;47.50
23717;DHT22;22094;52.130;5.598;2023-07-28T03:06:27;18.20;48.10
23717;DHT22;22094;52.130;5.598;2023-07-28T03:08:52;18.20;42.30
23717;DHT22;22094;52.130;5.598;2023-07-28T03:11:18;18.20;38.10
23717;DHT22;22094;52.130;5.598;2023-07-28T03:13:44;18.20;34.90
23717;DHT22;22094;52.130;5.598;2023-07-28T03:16:09;18.20;29.80
23717;DHT22;22094;52.130;5.598;2023-07-28T03:18:35;18.20;30.60
23717;DHT22;22094;52.130;5.598;2023-07-28T03:21:01;18.20;26.20
23717;DHT22;22094;52.130;5.598;2023-07-28T03:23:26;18.30;25.70
23717;DHT22;22094;52.130;5.598;2023-07-28T03:25:52;18.20;25.40
23717;DHT22;22094;52.130;5.598;2023-07-28T03:28:18;18.30;27.30
23717;DHT22;22094;52.130;5.598;2023-07-28T03:30:43;18.10;28.00
23717;DHT22;22094;52.130;5.598;2023-07-28T03:33:09;18.20;29.70
23717;DHT22;22094;52.130;5.598;2023-07-28T03:35:35;18.20;29.90
23717;DHT22;22094;52.130;5.598;2023-07-28T03:38:00;18.20;24.50
23717;DHT22;22094;52.130;5.598;2023-07-28T03:40:26;18.60;24.20
23717;DHT22;22094;52.130;5.598;2023-07-28T03:42:52;18.30;24.40
23717;DHT22;22094;52.130;5.598;2023-07-28T03:45:18;18.50;30.80
23717;DHT22;22094;52.130;5.598;2023-07-28T03:47:44;18.20;33.80
23717;DHT22;22094;52.130;5.598;2023-07-28T03:50:09;18.10;50.80
23717;DHT22;22094;52.130;5.598;2023-07-28T03:52:35;18.20;55.90
23717;DHT22;22094;52.130;5.598;2023-07-28T03:55:02;18.20;60.40
23717;DHT22;22094;52.130;5.598;2023-07-28T03:57:28;18.30;60.60
23717;DHT22;22094;52.130;5.598;2023-07-28T03:59:53;18.20;63.40
23717;DHT22;22094;52.130;5.598;2023-07-28T04:02:19;18.20;73.20
23717;DHT22;22094;52.130;5.598;2023-07-28T04:04:45;18.20;69.00
23717;DHT22;22094;52.130;5.598;2023-07-28T04:07:10;18.20;71.60
23717;DHT22;22094;52.130;5.598;2023-07-28T04:09:36;18.20;82.70
23717;DHT22;22094;52.130;5.598;2023-07-28T04:12:02;18.20;84.50
23717;DHT22;22094;52.130;5.598;2023-07-28T04:14:28;18.20;87.00
23717;DHT22;22094;52.130;5.598;2023-07-28T04:16:53;18.20;87.70
23717;DHT22;22094;52.130;5.598;2023-07-28T04:19:19;18.20;89.30
23717;DHT22;22094;52.130;5.598;2023-07-28T04:21:44;18.20;85.80
23717;DHT22;22094;52.130;5.598;2023-07-28T04:24:10;18.20;87.30
23717;DHT22;22094;52.130;5.598;2023-07-28T04:26:36;18.30;95.00
23717;DHT22;22094;52.130;5.598;2023-07-28T04:29:02;18.30;90.00
23717;DHT22;22094;52.130;5.598;2023-07-28T04:31:28;18.30;88.00
23717;DHT22;22094;52.130;5.598;2023-07-28T04:33:53;18.20;88.20
23717;DHT22;22094;52.130;5.598;2023-07-28T04:36:19;18.20;91.90
23717;DHT22;22094;52.130;5.598;2023-07-28T04:38:45;18.30;93.70
23717;DHT22;22094;52.130;5.598;2023-07-28T04:41:10;18.20;93.00
23717;DHT22;22094;52.130;5.598;2023-07-28T04:43:36;18.30;93.30
23717;DHT22;22094;52.130;5.598;2023-07-28T04:46:01;18.30;92.60
23717;DHT22;22094;52.130;5.598;2023-07-28T04:48:27;18.30;91.80
23717;DHT22;22094;52.130;5.598;2023-07-28T04:50:53;18.30;87.80
23717;DHT22;22094;52.130;5.598;2023-07-28T04:53:19;18.30;88.00
23717;DHT22;22094;52.130;5.598;2023-07-28T04:55:45;18.40;85.80
23717;DHT22;22094;52.130;5.598;2023-07-28T04:58:10;18.40;78.90
23717;DHT22;22094;52.130;5.598;2023-07-28T05:00:36;18.20;77.20
23717;DHT22;22094;52.130;5.598;2023-07-28T05:03:02;18.30;73.50
23717;DHT22;22094;52.130;5.598;2023-07-28T05:05:29;18.40;71.00
23717;DHT22;22094;52.130;5.598;2023-07-28T05:07:54;18.40;70.60
23717;DHT22;22094;52.130;5.598;2023-07-28T05:10:20;18.40;68.10
23717;DHT22;22094;52.130;5.598;2023-07-28T05:12:46;18.40;62.50
23717;DHT22;22094;52.130;5.598;2023-07-28T05:15:14;18.40;62.60
23717;DHT22;22094;52.130;5.598;2023-07-28T05:17:40;18.40;60.30
23717;DHT22;22094;52.130;5.598;2023-07-28T05:20:06;18.50;58.40
23717;DHT22;22094;52.130;5.598;2023-07-28T05:22:32;18.40;59.00
23717;DHT22;22094;52.130;5.598;2023-07-28T05:24:58;18.40;53.10
23717;DHT22;22094;52.130;5.598;2023-07-28T05:27:23;18.50;51.80
23717;DHT22;22094;52.130;5.598;2023-07-28T05:29:49;18.50;44.80
23717;DHT22;22094;52.130;5.598;2023-07-28T05:32:15;18.50;40.80
23717;DHT22;22094;52.130;5.598;2023-07-28T05:34:44;18.50;49.60
23717;DHT22;22094;52.130;5.598;2023-07-28T05:37:10;18.70;42.10
23717;DHT22;22094;52.130;5.598;2023-07-28T05:39:36;19.00;48.90
23717;DHT22;22094;52.130;5.598;2023-07-28T05:42:02;18.60;39.50
23717;DHT22;22094;52.130;5.598;2023-07-28T05:44:28;18.90;16.10
23717;DHT22;22094;52.130;5.598;2023-07-28T05:46:53;18.90;16.20
23717;DHT22;22094;52.130;5.598;2023-07-28T05:51:45;19.10;1.00
23717;DHT22;22094;52.130;5.598;2023-07-28T05:54:12;19.00;1.00
23717;DHT22;22094;52.130;5.598;2023-07-28T05:56:40;19.00;1.00
23717;DHT22;22094;52.130;5.598;2023-07-28T05:59:05;19.10;1.00
23717;DHT22;22094;52.130;5.598;2023-07-28T06:01:31;19.00;1.00
23717;DHT22;22094;52.130;5.598;2023-07-28T06:03:57;19.10;1.00
23717;DHT22;22094;52.130;5.598;2023-07-28T06:06:25;19.00;1.00
23717;DHT22;22094;52.130;5.598;2023-07-28T06:08:51;19.20;1.00
23717;DHT22;22094;52.130;5.598;2023-07-28T06:11:16;19.20;1.00
23717;DHT22;22094;52.130;5.598;2023-07-28T06:13:42;19.40;1.00
23717;DHT22;22094;52.130;5.598;2023-07-28T06:16:07;19.20;1.00
23717;DHT22;22094;52.130;5.598;2023-07-28T06:25:51;19.20;1.00
23717;DHT22;22094;52.130;5.598;2023-07-28T06:28:17;19.20;1.00
23717;DHT22;22094;52.130;5.598;2023-07-28T06:30:42;19.30;1.00
23717;DHT22;22094;52.130;5.598;2023-07-28T06:35:35;19.30;1.00
23717;DHT22;22094;52.130;5.598;2023-07-28T06:38:02;19.30;1.00
23717;DHT22;22094;52.130;5.598;2023-07-28T06:40:27;19.40;1.00
23717;DHT22;22094;52.130;5.598;2023-07-28T06:42:53;19.30;1.00
23717;DHT22;22094;52.130;5.598;2023-07-28T06:45:19;19.50;1.00
23717;DHT22;22094;52.130;5.598;2023-07-28T06:47:45;19.60;1.00
23717;DHT22;22094;52.130;5.598;2023-07-28T06:50:11;18.90;1.00
23717;DHT22;22094;52.130;5.598;2023-07-28T06:52:37;19.50;1.00
23717;DHT22;22094;52.130;5.598;2023-07-28T06:55:03;21.10;1.00
23717;DHT22;22094;52.130;5.598;2023-07-28T06:57:29;19.40;1.00
23717;DHT22;22094;52.130;5.598;2023-07-28T07:02:22;19.60;99.90
23717;DHT22;22094;52.130;5.598;2023-07-28T07:04:47;18.40;99.90
23717;DHT22;22094;52.130;5.598;2023-07-28T07:07:13;18.00;99.90
23717;DHT22;22094;52.130;5.598;2023-07-28T07:09:39;19.50;99.90
23717;DHT22;22094;52.130;5.598;2023-07-28T07:12:07;20.40;99.90
23717;DHT22;22094;52.130;5.598;2023-07-28T07:16:59;19.50;99.90
23717;DHT22;22094;52.130;5.598;2023-07-28T07:19:24;19.50;99.90
23717;DHT22;22094;52.130;5.598;2023-07-28T07:21:50;19.70;99.90
23717;DHT22;22094;52.130;5.598;2023-07-28T07:24:16;19.50;99.90
23717;DHT22;22094;52.130;5.598;2023-07-28T07:26:42;19.10;99.90
23717;DHT22;22094;52.130;5.598;2023-07-28T07:29:08;19.50;99.90
23717;DHT22;22094;52.130;5.598;2023-07-28T07:31:35;19.60;99.90
23717;DHT22;22094;52.130;5.598;2023-07-28T07:36:27;19.70;99.90
23717;DHT22;22094;52.130;5.598;2023-07-28T07:41:21;19.60;99.90
23717;DHT22;22094;52.130;5.598;2023-07-28T07:43:49;19.60;99.90
23717;DHT22;22094;52.130;5.598;2023-07-28T07:46:16;20.10;1.00
23717;DHT22;22094;52.130;5.598;2023-07-28T07:48:42;19.70;1.00
23717;DHT22;22094;52.130;5.598;2023-07-28T07:53:34;20.20;22.70
23717;DHT22;22094;52.130;5.598;2023-07-28T07:56:02;19.60;1.00
23717;DHT22;22094;52.130;5.598;2023-07-28T07:58:28;20.10;99.90
23717;DHT22;22094;52.130;5.598;2023-07-28T08:00:55;19.80;99.90
23717;DHT22;22094;52.130;5.598;2023-07-28T08:03:21;19.90;1.00
23717;DHT22;22094;52.130;5.598;2023-07-28T08:08:13;19.90;99.90
23717;DHT22;22094;52.130;5.598;2023-07-28T08:13:08;19.80;1.00
23717;DHT22;22094;52.130;5.598;2023-07-28T08:15:34;19.80;99.90
23717;DHT22;22094;52.130;5.598;2023-07-28T08:17:59;19.70;1.00
23717;DHT22;22094;52.130;5.598;2023-07-28T08:20:25;19.80;99.90
23717;DHT22;22094;52.130;5.598;2023-07-28T08:22:50;17.90;1.00
23717;DHT22;22094;52.130;5.598;2023-07-28T08:25:16;17.50;99.90
23717;DHT22;22094;52.130;5.598;2023-07-28T08:27:42;20.00;99.90
23717;DHT22;22094;52.130;5.598;2023-07-28T08:30:08;20.10;1.00
23717;DHT22;22094;52.130;5.598;2023-07-28T08:35:00;20.10;1.00
23717;DHT22;22094;52.130;5.598;2023-07-28T08:37:27;21.00;1.00
23717;DHT22;22094;52.130;5.598;2023-07-28T08:39:53;20.60;1.00
23717;DHT22;22094;52.130;5.598;2023-07-28T08:42:18;20.20;1.00
23717;DHT22;22094;52.130;5.598;2023-07-28T08:44:45;19.90;1.00
23717;DHT22;22094;52.130;5.598;2023-07-28T08:47:12;23.00;1.00
23717;DHT22;22094;52.130;5.598;2023-07-28T08:52:04;19.90;1.00
23717;DHT22;22094;52.130;5.598;2023-07-28T08:54:30;20.90;1.00
23717;DHT22;22094;52.130;5.598;2023-07-28T08:56:58;22.30;1.00
23717;DHT22;22094;52.130;5.598;2023-07-28T08:59:29;22.30;99.90
23717;DHT22;22094;52.130;5.598;2023-07-28T09:01:56;22.80;99.90
23717;DHT22;22094;52.130;5.598;2023-07-28T09:04:24;25.40;99.90
23717;DHT22;22094;52.130;5.598;2023-07-28T09:06:50;24.90;99.90
23717;DHT22;22094;52.130;5.598;2023-07-28T09:09:18;23.60;99.90
23717;DHT22;22094;52.130;5.598;2023-07-28T09:11:46;24.50;99.90
23717;DHT22;22094;52.130;5.598;2023-07-28T09:14:13;24.60;99.90
23717;DHT22;22094;52.130;5.598;2023-07-28T09:16:39;23.50;60.20
23717;DHT22;22094;52.130;5.598;2023-07-28T09:19:06;22.90;1.00
23717;DHT22;22094;52.130;5.598;2023-07-28T09:21:32;24.00;1.00
23717;DHT22;22094;52.130;5.598;2023-07-28T09:24:04;24.40;1.00
23717;DHT22;22094;52.130;5.598;2023-07-28T09:29:18;24.00;1.00
23717;DHT22;22094;52.130;5.598;2023-07-28T09:31:48;25.20;1.00
23717;DHT22;22094;52.130;5.598;2023-07-28T09:34:27;25.40;1.00
23717;DHT22;22094;52.130;5.598;2023-07-28T09:36:57;25.50;1.00
23717;DHT22;22094;52.130;5.598;2023-07-28T09:39:23;24.30;1.00
23717;DHT22;22094;52.130;5.598;2023-07-28T09:41:49;23.60;1.00
23717;DHT22;22094;52.130;5.598;2023-07-28T09:44:16;25.90;1.00
23717;DHT22;22094;52.130;5.598;2023-07-28T09:46:52;24.90;1.00
23717;DHT22;22094;52.130;5.598;2023-07-28T09:49:28;23.30;1.00
23717;DHT22;22094;52.130;5.598;2023-07-28T09:51:58;25.30;1.00
23717;DHT22;22094;52.130;5.598;2023-07-28T09:54:28;25.20;1.00
23717;DHT22;22094;52.130;5.598;2023-07-28T09:56:56;26.70;1.00
23717;DHT22;22094;52.130;5.598;2023-07-28T09:59:35;23.30;1.00
23717;DHT22;22094;52.130;5.598;2023-07-28T10:02:02;22.90;1.00
23717;DHT22;22094;52.130;5.598;2023-07-28T10:04:29;25.30;1.00
23717;DHT22;22094;52.130;5.598;2023-07-28T10:06:55;25.00;1.00
23717;DHT22;22094;52.130;5.598;2023-07-28T10:09:25;25.20;1.00
23717;DHT22;22094;52.130;5.598;2023-07-28T10:14:35;23.60;1.00
23717;DHT22;22094;52.130;5.598;2023-07-28T10:17:04;23.80;1.00
23717;DHT22;22094;52.130;5.598;2023-07-28T10:19:34;23.00;1.00
23717;DHT22;22094;52.130;5.598;2023-07-28T10:22:00;24.90;1.00
23717;DHT22;22094;52.130;5.598;2023-07-28T10:24:52;24.60;1.00
23717;DHT22;22094;52.130;5.598;2023-07-28T10:30:00;23.20;1.00
23717;DHT22;22094;52.130;5.598;2023-07-28T10:32:27;25.00;1.00
23717;DHT22;22094;52.130;5.598;2023-07-28T10:35:07;24.30;1.00
23717;DHT22;22094;52.130;5.598;2023-07-28T10:40:29;24.40;1.00
23717;DHT22;22094;52.130;5.598;2023-07-28T10:43:00;23.90;1.00
23717;DHT22;22094;52.130;5.598;2023-07-28T10:45:29;24.50;1.00
23717;DHT22;22094;52.130;5.598;2023-07-28T10:47:56;24.90;1.00
23717;DHT22;22094;52.130;5.598;2023-07-28T10:50:27;25.00;1.00
23717;DHT22;22094;52.130;5.598;2023-07-28T10:52:53;25.90;1.00
23717;DHT22;22094;52.130;5.598;2023-07-28T10:55:24;24.50;1.00
23717;DHT22;22094;52.130;5.598;2023-07-28T10:57:51;23.80;1.00
23717;DHT22;22094;52.130;5.598;2023-07-28T11:00:22;24.20;1.00
23717;DHT22;22094;52.130;5.598;2023-07-28T11:02:49;23.40;1.00
23717;DHT22;22094;52.130;5.598;2023-07-28T11:05:26;25.00;1.00
23717;DHT22;22094;52.130;5.598;2023-07-28T11:07:55;25.20;1.00
23717;DHT22;22094;52.130;5.598;2023-07-28T11:10:21;25.30;1.00
23717;DHT22;22094;52.130;5.598;2023-07-28T11:12:51;25.10;1.00
23717;DHT22;22094;52.130;5.598;2023-07-28T11:15:18;23.50;1.00
23717;DHT22;22094;52.130;5.598;2023-07-28T11:17:48;25.40;1.00
23717;DHT22;22094;52.130;5.598;2023-07-28T11:20:19;25.00;1.00
23717;DHT22;22094;52.130;5.598;2023-07-28T11:22:55;23.60;1.00
23717;DHT22;22094;52.130;5.598;2023-07-28T11:25:23;23.20;1.00
23717;DHT22;22094;52.130;5.598;2023-07-28T11:27:50;23.90;1.00
23717;DHT22;22094;52.130;5.598;2023-07-28T11:30:17;24.10;1.00
23717;DHT22;22094;52.130;5.598;2023-07-28T11:33:03;24.70;1.00
23717;DHT22;22094;52.130;5.598;2023-07-28T11:38:03;24.10;1.00
23717;DHT22;22094;52.130;5.598;2023-07-28T11:40:35;24.00;1.00
23717;DHT22;22094;52.130;5.598;2023-07-28T11:43:01;24.20;1.00
23717;DHT22;22094;52.130;5.598;2023-07-28T11:45:30;24.20;1.00
23717;DHT22;22094;52.130;5.598;2023-07-28T11:50:27;24.90;1.00
23717;DHT22;22094;52.130;5.598;2023-07-28T11:53:19;24.60;1.00
23717;DHT22;22094;52.130;5.598;2023-07-28T11:55:46;24.80;1.00
23717;DHT22;22094;52.130;5.598;2023-07-28T11:58:12;22.40;1.00
23717;DHT22;22094;52.130;5.598;2023-07-28T12:00:39;24.30;1.00
23717;DHT22;22094;52.130;5.598;2023-07-28T12:03:10;24.60;1.00
23717;DHT22;22094;52.130;5.598;2023-07-28T12:10:29;26.10;1.00
23717;DHT22;22094;52.130;5.598;2023-07-28T12:12:57;27.40;1.00
23717;DHT22;22094;52.130;5.598;2023-07-28T12:15:29;26.80;1.00
23717;DHT22;22094;52.130;5.598;2023-07-28T12:18:11;25.00;1.00
23717;DHT22;22094;52.130;5.598;2023-07-28T12:20:42;27.20;1.00
23717;DHT22;22094;52.130;5.598;2023-07-28T12:23:13;27.50;1.00
23717;DHT22;22094;52.130;5.598;2023-07-28T12:25:40;26.00;1.00
23717;DHT22;22094;52.130;5.598;2023-07-28T12:30:32;26.80;1.00
23717;DHT22;22094;52.130;5.598;2023-07-28T12:35:26;26.80;1.00
23717;DHT22;22094;52.130;5.598;2023-07-28T12:37:56;28.50;1.00
23717;DHT22;22094;52.130;5.598;2023-07-28T12:42:49;26.60;1.00
23717;DHT22;22094;52.130;5.598;2023-07-28T12:45:15;26.60;1.00
23717;DHT22;22094;52.130;5.598;2023-07-28T12:50:10;26.40;1.00
23717;DHT22;22094;52.130;5.598;2023-07-28T12:52:36;27.70;1.00
23717;DHT22;22094;52.130;5.598;2023-07-28T12:55:05;26.60;1.00
23717;DHT22;22094;52.130;5.598;2023-07-28T12:57:34;26.00;1.00
23717;DHT22;22094;52.130;5.598;2023-07-28T13:02:25;25.90;1.00
23717;DHT22;22094;52.130;5.598;2023-07-28T13:07:17;27.90;1.00
23717;DHT22;22094;52.130;5.598;2023-07-28T13:17:05;27.70;1.00
23717;DHT22;22094;52.130;5.598;2023-07-28T13:26:49;27.10;1.00
23717;DHT22;22094;52.130;5.598;2023-07-28T13:51:11;27.90;1.00
23717;DHT22;22094;52.130;5.598;2023-07-28T13:56:03;28.00;1.00
23717;DHT22;22094;52.130;5.598;2023-07-28T14:05:47;28.10;1.00
23717;DHT22;22094;52.130;5.598;2023-07-28T14:08:12;28.20;1.00
23717;DHT22;22094;52.130;5.598;2023-07-28T14:25:14;29.90;99.90
23717;DHT22;22094;52.130;5.598;2023-07-28T14:27:40;30.20;99.90
23717;DHT22;22094;52.130;5.598;2023-07-28T14:30:06;29.40;99.90
23717;DHT22;22094;52.130;5.598;2023-07-28T14:32:32;28.20;99.90
23717;DHT22;22094;52.130;5.598;2023-07-28T14:39:57;29.00;99.90
23717;DHT22;22094;52.130;5.598;2023-07-28T14:42:34;29.30;99.90
23717;DHT22;22094;52.130;5.598;2023-07-28T14:45:03;29.30;99.90
23717;DHT22;22094;52.130;5.598;2023-07-28T14:47:28;29.90;99.90
23717;DHT22;22094;52.130;5.598;2023-07-28T14:49:54;30.20;99.90
23717;DHT22;22094;52.130;5.598;2023-07-28T14:54:54;28.50;99.90
23717;DHT22;22094;52.130;5.598;2023-07-28T15:02:12;27.30;99.90
23717;DHT22;22094;52.130;5.598;2023-07-28T15:07:05;29.30;99.90
23717;DHT22;22094;52.130;5.598;2023-07-28T15:14:23;28.80;99.90
23717;DHT22;22094;52.130;5.598;2023-07-28T15:16:48;28.00;99.90
23717;DHT22;22094;52.130;5.598;2023-07-28T15:21:43;28.10;99.90
23717;DHT22;22094;52.130;5.598;2023-07-28T15:24:09;28.60;99.90
23717;DHT22;22094;52.130;5.598;2023-07-28T15:33:54;30.70;99.90
23717;DHT22;22094;52.130;5.598;2023-07-28T15:41:12;29.50;99.90
23717;DHT22;22094;52.130;5.598;2023-07-28T15:46:04;29.90;99.90
23717;DHT22;22094;52.130;5.598;2023-07-28T15:48:30;29.90;99.90
23717;DHT22;22094;52.130;5.598;2023-07-28T15:53:22;28.00;99.90
23717;DHT22;22094;52.130;5.598;2023-07-28T15:58:14;27.00;99.90
23717;DHT22;22094;52.130;5.598;2023-07-28T16:00:39;26.70;99.90
23717;DHT22;22094;52.130;5.598;2023-07-28T16:03:14;26.70;99.90
23717;DHT22;22094;52.130;5.598;2023-07-28T16:08:15;26.80;99.90
23717;DHT22;22094;52.130;5.598;2023-07-28T16:10:40;28.50;99.90
23717;DHT22;22094;52.130;5.598;2023-07-28T16:15:32;30.00;99.90
23717;DHT22;22094;52.130;5.598;2023-07-28T16:20:23;30.80;99.90
23717;DHT22;22094;52.130;5.598;2023-07-28T16:22:49;28.80;99.90
23717;DHT22;22094;52.130;5.598;2023-07-28T16:25:15;27.60;99.90
23717;DHT22;22094;52.130;5.598;2023-07-28T16:27:41;27.40;99.90
23717;DHT22;22094;52.130;5.598;2023-07-28T16:30:07;27.40;99.90
23717;DHT22;22094;52.130;5.598;2023-07-28T16:32:33;27.00;99.90
23717;DHT22;22094;52.130;5.598;2023-07-28T16:34:58;27.50;99.90
23717;DHT22;22094;52.130;5.598;2023-07-28T16:37:24;28.40;99.90
23717;DHT22;22094;52.130;5.598;2023-07-28T16:39:50;27.40;99.90
23717;DHT22;22094;52.130;5.598;2023-07-28T16:42:17;27.00;99.90
23717;DHT22;22094;52.130;5.598;2023-07-28T16:44:46;27.80;99.90
23717;DHT22;22094;52.130;5.598;2023-07-28T16:47:11;27.40;99.90
23717;DHT22;22094;52.130;5.598;2023-07-28T16:49:37;27.90;99.90
23717;DHT22;22094;52.130;5.598;2023-07-28T16:52:03;26.60;99.90
23717;DHT22;22094;52.130;5.598;2023-07-28T16:54:31;26.30;99.90
23717;DHT22;22094;52.130;5.598;2023-07-28T16:56:57;26.00;99.90
23717;DHT22;22094;52.130;5.598;2023-07-28T16:59:29;24.80;99.90
23717;DHT22;22094;52.130;5.598;2023-07-28T17:01:55;25.10;99.90
23717;DHT22;22094;52.130;5.598;2023-07-28T17:04:23;25.20;99.90
23717;DHT22;22094;52.130;5.598;2023-07-28T17:06:49;25.50;1.00
23717;DHT22;22094;52.130;5.598;2023-07-28T17:11:41;22.80;1.00
23717;DHT22;22094;52.130;5.598;2023-07-28T17:14:06;22.70;1.00
23717;DHT22;22094;52.130;5.598;2023-07-28T17:21:32;22.20;1.00
23717;DHT22;22094;52.130;5.598;2023-07-28T17:23:57;22.20;1.00
23717;DHT22;22094;52.130;5.598;2023-07-28T17:28:49;22.20;1.00
23717;DHT22;22094;52.130;5.598;2023-07-28T17:31:21;22.10;1.00
23717;DHT22;22094;52.130;5.598;2023-07-28T17:33:46;22.10;1.00
23717;DHT22;22094;52.130;5.598;2023-07-28T17:36:12;21.90;1.00
23717;DHT22;22094;52.130;5.598;2023-07-28T17:38:37;21.90;1.00
23717;DHT22;22094;52.130;5.598;2023-07-28T17:41:03;21.60;1.00
23717;DHT22;22094;52.130;5.598;2023-07-28T17:45:54;21.70;1.00
23717;DHT22;22094;52.130;5.598;2023-07-28T17:48:20;21.10;1.00
23717;DHT22;22094;52.130;5.598;2023-07-28T17:55:38;21.40;1.00
23717;DHT22;22094;52.130;5.598;2023-07-28T18:00:30;21.50;1.00
23717;DHT22;22094;52.130;5.598;2023-07-28T18:02:55;21.50;1.00
23717;DHT22;22094;52.130;5.598;2023-07-28T18:07:47;21.50;1.00
23717;DHT22;22094;52.130;5.598;2023-07-28T18:10:13;21.40;1.00
23717;DHT22;22094;52.130;5.598;2023-07-28T18:12:42;21.30;1.00
23717;DHT22;22094;52.130;5.598;2023-07-28T18:21:04;21.50;1.00
23717;DHT22;22094;52.130;5.598;2023-07-28T18:23:36;20.50;1.00
23717;DHT22;22094;52.130;5.598;2023-07-28T18:28:34;21.60;1.00
23717;DHT22;22094;52.130;5.598;2023-07-28T18:36:46;21.90;1.00
23717;DHT22;22094;52.130;5.598;2023-07-28T18:44:07;22.10;1.00
23717;DHT22;22094;52.130;5.598;2023-07-28T18:53:52;21.70;1.00
23717;DHT22;22094;52.130;5.598;2023-07-28T18:58:43;21.50;1.00
23717;DHT22;22094;52.130;5.598;2023-07-28T19:01:09;21.30;1.00
23717;DHT22;22094;52.130;5.598;2023-07-28T19:03:35;21.20;1.00
23717;DHT22;22094;52.130;5.598;2023-07-28T19:06:00;21.30;1.00
23717;DHT22;22094;52.130;5.598;2023-07-28T19:08:26;21.00;1.00
23717;DHT22;22094;52.130;5.598;2023-07-28T19:10:52;21.00;1.00
23717;DHT22;22094;52.130;5.598;2023-07-28T19:13:17;21.00;1.00
23717;DHT22;22094;52.130;5.598;2023-07-28T19:15:43;20.70;1.00
23717;DHT22;22094;52.130;5.598;2023-07-28T19:18:08;20.60;1.00
23717;DHT22;22094;52.130;5.598;2023-07-28T19:20:34;20.50;1.00
23717;DHT22;22094;52.130;5.598;2023-07-28T19:23:00;20.30;99.70
23717;DHT22;22094;52.130;5.598;2023-07-28T19:25:26;20.20;99.90
23717;DHT22;22094;52.130;5.598;2023-07-28T19:27:54;20.10;99.90